Time;durP1;ratioP1;P1;durP2;ratioP2;P2;SDS_P1;SDS_P2;PMS_P1;PMS_P2;Temp;Humidity;BMP_temperature;BMP_pressure;BME280_temperature;BME280_humidity;BME280_pressure;Samples;Min_cycle;Max_cycle;Signal;HPM_P1;HPM_P2
2023/09/15 00:00:47;;;;;;;11.18;8.85;;;;;;;;;;5006678;28;100123;-70
2023/09/15 00:03:15;;;;;;;11.60;9.55;;;;;;;;;;5004375;28;98353;-69
2023/09/15 00:05:41;;;;;;;9.88;8.57;;;;;;;;;;5006449;28;99562;-69
2023/09/15 00:08:08;;;;;;;17.27;9.50;;;;;;;;;;5006951;28;99943;-68
2023/09/15 00:10:38;;;;;;;14.02;9.20;;;;;;;;;;5009604;28;98920;-70
2023/09/15 00:13:07;;;;;;;12.35;9.52;;;;;;;;;;5008178;28;99412;-69
2023/09/15 00:15:35;;;;;;;14.52;9.55;;;;;;;;;;5009997;28;98263;-69
2023/09/15 00:18:01;;;;;;;14.27;9.98;;;;;;;;;;5009782;28;99202;-69
2023/09/15 00:20:28;;;;;;;10.35;9.38;;;;;;;;;;5006324;28;99844;-69
2023/09/15 00:22:55;;;;;;;11.52;9.52;;;;;;;;;;5006041;28;98343;-69
2023/09/15 00:25:25;;;;;;;12.45;9.98;;;;;;;;;;5005609;28;98519;-69
2023/09/15 00:27:53;;;;;;;14.25;9.55;;;;;;;;;;5006203;28;99094;-69
2023/09/15 00:30:21;;;;;;;9.88;8.98;;;;;;;;;;5005284;28;98188;-69
2023/09/15 00:32:48;;;;;;;14.57;9.95;;;;;;;;;;5008267;28;99415;-70
2023/09/15 00:35:16;;;;;;;10.15;8.70;;;;;;;;;;5006166;28;98408;-69
2023/09/15 00:37:46;;;;;;;9.80;8.88;;;;;;;;;;5005797;28;98354;-69
2023/09/15 00:40:13;;;;;;;10.90;9.57;;;;;;;;;;5004644;28;101060;-69
2023/09/15 00:42:43;;;;;;;10.48;8.95;;;;;;;;;;5006021;28;98197;-69
2023/09/15 00:45:14;;;;;;;13.35;9.88;;;;;;;;;;4998531;28;98648;-69
2023/09/15 00:47:43;;;;;;;10.73;9.52;;;;;;;;;;5005102;28;101692;-70
2023/09/15 00:50:14;;;;;;;15.35;10.30;;;;;;;;;;5006322;28;98569;-71
2023/09/15 00:52:43;;;;;;;11.88;9.98;;;;;;;;;;5006130;28;98970;-70
2023/09/15 00:55:11;;;;;;;13.70;10.63;;;;;;;;;;5005844;28;101269;-69
2023/09/15 00:57:37;;;;;;;12.32;9.88;;;;;;;;;;5004318;28;99908;-70
2023/09/15 01:00:11;;;;;;;12.77;9.60;;;;;;;;;;5005783;28;100042;-70
2023/09/15 01:02:39;;;;;;;11.63;9.95;;;;;;;;;;5006514;28;98171;-69
2023/09/15 01:05:08;;;;;;;13.20;10.05;;;;;;;;;;5004937;28;98584;-69
2023/09/15 01:07:35;;;;;;;16.55;10.75;;;;;;;;;;5004398;28;99258;-70
2023/09/15 01:10:03;;;;;;;11.90;10.63;;;;;;;;;;5008676;28;98920;-70
2023/09/15 01:12:31;;;;;;;12.43;9.60;;;;;;;;;;5007709;28;98525;-70
2023/09/15 01:14:57;;;;;;;14.98;10.02;;;;;;;;;;5010459;28;99020;-71
2023/09/15 01:17:28;;;;;;;11.25;10.05;;;;;;;;;;5005657;28;98929;-70
2023/09/15 01:20:20;;;;;;;13.43;9.70;;;;;;;;;;5002776;28;99364;-70
2023/09/15 01:23:07;;;;;;;11.98;9.50;;;;;;;;;;4968199;28;98382;-70
2023/09/15 01:25:39;;;;;;;12.98;9.75;;;;;;;;;;5004368;28;100365;-69
2023/09/15 01:28:23;;;;;;;11.27;10.20;;;;;;;;;;5005604;28;99834;-69
2023/09/15 01:30:51;;;;;;;11.38;10.13;;;;;;;;;;5005836;28;98134;-70
2023/09/15 01:33:18;;;;;;;10.73;9.63;;;;;;;;;;5003582;28;98196;-69
2023/09/15 01:35:45;;;;;;;10.98;9.82;;;;;;;;;;5006405;28;99066;-70
2023/09/15 01:38:11;;;;;;;14.18;9.38;;;;;;;;;;5009221;28;98212;-69
2023/09/15 01:40:37;;;;;;;11.13;10.07;;;;;;;;;;5008114;28;99451;-70
2023/09/15 01:43:04;;;;;;;15.02;9.75;;;;;;;;;;5007589;28;99834;-70
2023/09/15 01:45:31;;;;;;;13.48;10.23;;;;;;;;;;5005131;28;100556;-70
2023/09/15 01:47:57;;;;;;;12.80;10.05;;;;;;;;;;5008124;28;99434;-70
2023/09/15 01:50:26;;;;;;;13.65;9.77;;;;;;;;;;5008453;28;98319;-70
2023/09/15 01:52:53;;;;;;;15.95;9.48;;;;;;;;;;5005411;28;98552;-70
2023/09/15 01:55:19;;;;;;;12.48;9.43;;;;;;;;;;5006692;28;100845;-69
2023/09/15 01:57:46;;;;;;;13.18;10.13;;;;;;;;;;5008910;28;99036;-70
2023/09/15 02:00:13;;;;;;;10.63;9.57;;;;;;;;;;5012352;28;99542;-69
2023/09/15 02:02:41;;;;;;;12.00;9.18;;;;;;;;;;5006934;28;98269;-69
2023/09/15 02:05:10;;;;;;;23.10;10.48;;;;;;;;;;5008037;28;98647;-70
2023/09/15 02:07:36;;;;;;;14.55;10.02;;;;;;;;;;5008931;28;99407;-69
2023/09/15 02:10:03;;;;;;;13.77;9.52;;;;;;;;;;5008219;28;98297;-69
2023/09/15 02:12:30;;;;;;;11.50;10.32;;;;;;;;;;5006710;28;99489;-70
2023/09/15 02:14:56;;;;;;;13.48;10.25;;;;;;;;;;5008014;28;100080;-69
2023/09/15 02:17:22;;;;;;;13.40;10.70;;;;;;;;;;5008263;28;98390;-70
2023/09/15 02:19:49;;;;;;;14.05;10.65;;;;;;;;;;5009159;28;98386;-70
2023/09/15 02:22:17;;;;;;;12.13;10.98;;;;;;;;;;5009059;28;101884;-71
2023/09/15 02:24:43;;;;;;;26.77;10.48;;;;;;;;;;5009234;28;98294;-70
2023/09/15 02:27:10;;;;;;;14.38;10.60;;;;;;;;;;5007261;28;100242;-70
2023/09/15 02:29:36;;;;;;;14.80;10.48;;;;;;;;;;5007993;28;98270;-70
2023/09/15 02:32:03;;;;;;;16.02;10.10;;;;;;;;;;5008236;28;98618;-70
2023/09/15 02:34:30;;;;;;;16.25;12.40;;;;;;;;;;5007427;28;98871;-70
2023/09/15 02:36:56;;;;;;;15.57;10.32;;;;;;;;;;5006017;28;98236;-70
2023/09/15 02:39:24;;;;;;;15.45;10.90;;;;;;;;;;5006926;28;98451;-70
2023/09/15 02:41:52;;;;;;;11.82;10.02;;;;;;;;;;5006585;28;100147;-70
2023/09/15 02:44:19;;;;;;;10.82;9.77;;;;;;;;;;5011219;28;98191;-70
2023/09/15 02:46:46;;;;;;;11.70;9.77;;;;;;;;;;4999185;28;101097;-70
2023/09/15 02:49:13;;;;;;;15.90;10.18;;;;;;;;;;5007940;28;98281;-69
2023/09/15 02:51:41;;;;;;;10.68;9.57;;;;;;;;;;5006192;28;101609;-70
2023/09/15 02:54:08;;;;;;;14.60;9.30;;;;;;;;;;5006590;28;98949;-70
2023/09/15 02:56:34;;;;;;;12.93;10.07;;;;;;;;;;5005824;28;98237;-70
2023/09/15 02:59:01;;;;;;;11.68;9.35;;;;;;;;;;5005299;28;99741;-69
2023/09/15 03:01:27;;;;;;;10.88;9.63;;;;;;;;;;5008138;28;98797;-70
2023/09/15 03:03:55;;;;;;;10.43;9.43;;;;;;;;;;5006687;28;98363;-69
2023/09/15 03:06:25;;;;;;;14.50;9.77;;;;;;;;;;5011016;28;101414;-70
2023/09/15 03:08:52;;;;;;;12.45;10.05;;;;;;;;;;5011257;28;98104;-70
2023/09/15 03:11:18;;;;;;;17.10;8.68;;;;;;;;;;5009250;28;99463;-69
2023/09/15 03:13:46;;;;;;;10.35;9.35;;;;;;;;;;5006271;28;101857;-70
2023/09/15 03:16:14;;;;;;;16.45;9.88;;;;;;;;;;5006729;28;98299;-70
2023/09/15 03:18:46;;;;;;;12.18;9.65;;;;;;;;;;5005904;28;100481;-70
2023/09/15 03:21:15;;;;;;;15.77;10.77;;;;;;;;;;5005895;28;99086;-70
2023/09/15 03:23:41;;;;;;;13.32;9.27;;;;;;;;;;5005640;28;98271;-70
2023/09/15 03:26:08;;;;;;;12.90;9.70;;;;;;;;;;5008349;28;100098;-70
2023/09/15 03:28:36;;;;;;;10.57;9.52;;;;;;;;;;5005627;28;98540;-70
2023/09/15 03:31:05;;;;;;;9.95;8.90;;;;;;;;;;5006687;28;100389;-70
2023/09/15 03:33:32;;;;;;;18.08;9.40;;;;;;;;;;5002893;28;99769;-69
2023/09/15 03:35:59;;;;;;;20.23;10.20;;;;;;;;;;5007531;28;98905;-69
2023/09/15 03:38:25;;;;;;;9.80;8.60;;;;;;;;;;5006038;28;98523;-70
2023/09/15 03:40:52;;;;;;;12.65;9.82;;;;;;;;;;5005005;28;100564;-70
2023/09/15 03:43:19;;;;;;;10.18;9.18;;;;;;;;;;5005658;28;98304;-71
2023/09/15 03:45:46;;;;;;;11.48;9.45;;;;;;;;;;5007498;28;100067;-70
2023/09/15 03:48:13;;;;;;;13.07;9.75;;;;;;;;;;5009418;28;98759;-69
2023/09/15 03:50:39;;;;;;;12.25;9.00;;;;;;;;;;5005964;28;98440;-70
2023/09/15 03:53:06;;;;;;;11.52;8.77;;;;;;;;;;5007124;28;98855;-69
2023/09/15 03:55:33;;;;;;;14.20;9.70;;;;;;;;;;5004887;28;98363;-69
2023/09/15 03:58:02;;;;;;;11.30;8.93;;;;;;;;;;5005979;28;101184;-70
2023/09/15 04:00:28;;;;;;;10.40;9.05;;;;;;;;;;5003948;28;101153;-69
2023/09/15 04:02:55;;;;;;;10.80;9.18;;;;;;;;;;5005377;28;98344;-69
2023/09/15 04:05:21;;;;;;;10.57;9.43;;;;;;;;;;5007362;28;99611;-70
2023/09/15 04:07:48;;;;;;;9.00;8.25;;;;;;;;;;5007457;28;101962;-70
2023/09/15 04:10:15;;;;;;;10.68;8.80;;;;;;;;;;5011176;28;98264;-70
2023/09/15 04:12:42;;;;;;;11.23;8.65;;;;;;;;;;5003809;28;100944;-69
2023/09/15 04:15:10;;;;;;;12.65;8.10;;;;;;;;;;5006427;28;98350;-70
2023/09/15 04:17:37;;;;;;;9.90;8.38;;;;;;;;;;5005512;28;99492;-70
2023/09/15 04:20:09;;;;;;;10.98;8.02;;;;;;;;;;5006996;28;98992;-69
2023/09/15 04:22:36;;;;;;;9.45;7.63;;;;;;;;;;5004553;28;98227;-69
2023/09/15 04:25:05;;;;;;;9.30;7.65;;;;;;;;;;5005356;28;99497;-70
2023/09/15 04:27:32;;;;;;;11.48;7.95;;;;;;;;;;5005070;28;101591;-70
2023/09/15 04:29:59;;;;;;;12.07;7.05;;;;;;;;;;5005150;28;98720;-71
2023/09/15 04:32:31;;;;;;;11.63;7.10;;;;;;;;;;5006013;28;98576;-70
2023/09/15 04:34:58;;;;;;;10.77;7.45;;;;;;;;;;5001161;28;98490;-69
2023/09/15 04:37:24;;;;;;;7.68;6.90;;;;;;;;;;5003351;28;99519;-69
2023/09/15 04:39:51;;;;;;;8.13;7.22;;;;;;;;;;5005467;28;102810;-71
2023/09/15 04:42:17;;;;;;;11.63;7.97;;;;;;;;;;5004537;28;99025;-69
2023/09/15 04:44:44;;;;;;;9.63;7.97;;;;;;;;;;5004843;28;100779;-71
2023/09/15 04:47:28;;;;;;;7.43;6.53;;;;;;;;;;5005076;28;100873;-70
2023/09/15 04:49:55;;;;;;;11.63;7.10;;;;;;;;;;5005043;28;98386;-70
2023/09/15 04:52:22;;;;;;;8.43;7.53;;;;;;;;;;5006297;28;98509;-69
2023/09/15 04:54:48;;;;;;;7.72;6.97;;;;;;;;;;5000650;28;101527;-70
2023/09/15 04:57:15;;;;;;;8.43;7.03;;;;;;;;;;5005112;28;98287;-70
2023/09/15 04:59:42;;;;;;;7.50;6.80;;;;;;;;;;5005024;28;101066;-70
2023/09/15 05:02:09;;;;;;;7.68;6.97;;;;;;;;;;5005251;28;98274;-71
2023/09/15 05:04:36;;;;;;;8.90;7.63;;;;;;;;;;5006097;28;99360;-69
2023/09/15 05:07:03;;;;;;;9.25;7.68;;;;;;;;;;5007503;28;99062;-71
2023/09/15 05:09:29;;;;;;;13.07;8.07;;;;;;;;;;5005482;28;98460;-70
2023/09/15 05:11:56;;;;;;;10.55;7.00;;;;;;;;;;5008016;28;98346;-71
2023/09/15 05:14:23;;;;;;;10.48;7.30;;;;;;;;;;5009712;28;99998;-70
2023/09/15 05:16:50;;;;;;;7.90;7.10;;;;;;;;;;5012744;28;98617;-70
2023/09/15 05:19:16;;;;;;;14.25;7.93;;;;;;;;;;5008954;28;98892;-70
2023/09/15 05:21:43;;;;;;;10.35;5.65;;;;;;;;;;5007872;28;98248;-71
2023/09/15 05:24:11;;;;;;;7.93;6.90;;;;;;;;;;5009741;28;98799;-70
2023/09/15 05:26:37;;;;;;;15.55;6.85;;;;;;;;;;5005972;28;101250;-71
2023/09/15 05:29:04;;;;;;;11.35;6.53;;;;;;;;;;5008064;28;98752;-68
2023/09/15 05:31:30;;;;;;;7.28;6.55;;;;;;;;;;5009027;28;98332;-71
2023/09/15 05:33:57;;;;;;;10.25;6.97;;;;;;;;;;5008024;28;99996;-71
2023/09/15 05:36:24;;;;;;;14.60;6.95;;;;;;;;;;5010927;28;98344;-69
2023/09/15 05:38:50;;;;;;;9.20;6.38;;;;;;;;;;5007111;28;100876;-70
2023/09/15 05:41:17;;;;;;;10.57;6.72;;;;;;;;;;5006567;28;98974;-70
2023/09/15 05:43:43;;;;;;;8.55;7.13;;;;;;;;;;5008068;28;99498;-70
2023/09/15 05:46:10;;;;;;;9.02;7.00;;;;;;;;;;5008432;28;100044;-70
2023/09/15 05:48:36;;;;;;;9.85;6.82;;;;;;;;;;5009040;28;98327;-70
2023/09/15 05:51:04;;;;;;;7.85;6.65;;;;;;;;;;5008071;28;99690;-70
2023/09/15 05:53:31;;;;;;;11.95;7.63;;;;;;;;;;5008022;28;99906;-69
2023/09/15 05:55:58;;;;;;;10.52;6.20;;;;;;;;;;5009006;28;98901;-68
2023/09/15 05:58:24;;;;;;;8.75;6.30;;;;;;;;;;5012380;28;99748;-70
2023/09/15 06:00:54;;;;;;;14.48;7.38;;;;;;;;;;5008807;28;98344;-69
2023/09/15 06:03:22;;;;;;;11.65;6.50;;;;;;;;;;5008147;28;99526;-71
2023/09/15 06:05:49;;;;;;;8.40;6.53;;;;;;;;;;5009400;28;99938;-70
2023/09/15 06:08:17;;;;;;;10.80;6.22;;;;;;;;;;5008056;28;98380;-70
2023/09/15 06:10:43;;;;;;;7.22;6.00;;;;;;;;;;5009058;28;99306;-70
2023/09/15 06:13:10;;;;;;;6.95;5.82;;;;;;;;;;5007925;28;99103;-68
2023/09/15 06:15:36;;;;;;;8.65;6.35;;;;;;;;;;5007458;28;98296;-70
2023/09/15 06:18:03;;;;;;;11.70;6.22;;;;;;;;;;5008199;28;98811;-70
2023/09/15 06:20:33;;;;;;;9.43;6.35;;;;;;;;;;5010998;28;99163;-70
2023/09/15 06:23:00;;;;;;;8.18;5.93;;;;;;;;;;5006552;28;98424;-70
2023/09/15 06:25:27;;;;;;;12.30;6.32;;;;;;;;;;5008387;28;99114;-70
2023/09/15 06:27:55;;;;;;;7.53;6.20;;;;;;;;;;5008271;28;99433;-69
2023/09/15 06:30:36;;;;;;;9.48;6.32;;;;;;;;;;5008374;28;99339;-69
2023/09/15 06:33:03;;;;;;;8.95;5.95;;;;;;;;;;5008253;28;99448;-69
2023/09/15 06:35:29;;;;;;;10.88;6.70;;;;;;;;;;5008921;28;98375;-70
2023/09/15 06:37:56;;;;;;;12.77;7.13;;;;;;;;;;5009389;28;98506;-70
2023/09/15 06:40:22;;;;;;;11.73;6.68;;;;;;;;;;5007752;28;100275;-70
2023/09/15 06:42:49;;;;;;;8.90;6.20;;;;;;;;;;5010699;28;98590;-70
2023/09/15 06:45:16;;;;;;;8.05;5.88;;;;;;;;;;5007838;28;99967;-70
2023/09/15 06:47:43;;;;;;;7.88;6.15;;;;;;;;;;5008394;28;98400;-70
2023/09/15 06:50:09;;;;;;;13.80;6.63;;;;;;;;;;5007778;28;99710;-71
2023/09/15 06:52:36;;;;;;;8.10;5.53;;;;;;;;;;5007770;28;100975;-69
2023/09/15 06:55:03;;;;;;;7.18;6.13;;;;;;;;;;5008270;28;98686;-70
2023/09/15 06:57:29;;;;;;;10.60;6.38;;;;;;;;;;5007285;28;99511;-70
2023/09/15 06:59:56;;;;;;;6.10;5.55;;;;;;;;;;5010006;28;99154;-70
2023/09/15 07:02:22;;;;;;;21.30;6.55;;;;;;;;;;5009079;28;99103;-71
2023/09/15 07:04:49;;;;;;;6.63;5.60;;;;;;;;;;5009926;28;98998;-70
2023/09/15 07:07:15;;;;;;;6.70;6.03;;;;;;;;;;5007317;28;98298;-71
2023/09/15 07:09:42;;;;;;;11.07;5.97;;;;;;;;;;5007831;28;99532;-72
2023/09/15 07:12:09;;;;;;;6.80;6.15;;;;;;;;;;5006745;28;99050;-71
2023/09/15 07:14:35;;;;;;;10.23;6.30;;;;;;;;;;5007880;28;98184;-69
2023/09/15 07:17:02;;;;;;;7.32;5.63;;;;;;;;;;5006904;28;98687;-71
2023/09/15 07:19:30;;;;;;;13.20;6.00;;;;;;;;;;5006397;28;99103;-70
2023/09/15 07:21:56;;;;;;;10.88;6.10;;;;;;;;;;5007518;28;98262;-70
2023/09/15 07:24:23;;;;;;;8.52;5.70;;;;;;;;;;5007003;28;98375;-69
2023/09/15 07:26:49;;;;;;;8.00;6.28;;;;;;;;;;5010084;28;98199;-69
2023/09/15 07:29:16;;;;;;;9.55;6.43;;;;;;;;;;5006101;28;98557;-69
2023/09/15 07:31:42;;;;;;;13.07;6.50;;;;;;;;;;5006594;28;100287;-71
2023/09/15 07:34:09;;;;;;;12.35;6.75;;;;;;;;;;5006130;28;98240;-71
2023/09/15 07:36:37;;;;;;;11.38;6.30;;;;;;;;;;5007456;28;99573;-69
2023/09/15 07:39:05;;;;;;;16.40;6.22;;;;;;;;;;5006318;28;99999;-70
2023/09/15 07:41:31;;;;;;;11.90;6.18;;;;;;;;;;5006978;28;98314;-69
2023/09/15 07:44:00;;;;;;;19.65;6.05;;;;;;;;;;5007192;28;98703;-70
2023/09/15 07:46:28;;;;;;;12.40;5.90;;;;;;;;;;5009306;28;98922;-70
2023/09/15 07:48:54;;;;;;;7.28;5.40;;;;;;;;;;5007496;28;99453;-70
2023/09/15 07:51:21;;;;;;;10.75;5.82;;;;;;;;;;5006348;28;99004;-70
2023/09/15 07:53:47;;;;;;;9.82;6.05;;;;;;;;;;4997792;28;98626;-71
2023/09/15 07:56:14;;;;;;;10.13;5.70;;;;;;;;;;5009375;28;99254;-70
2023/09/15 07:58:41;;;;;;;12.13;6.00;;;;;;;;;;5011176;28;100290;-70
2023/09/15 08:01:07;;;;;;;11.43;5.95;;;;;;;;;;5011379;28;98739;-70
2023/09/15 08:03:34;;;;;;;7.97;5.72;;;;;;;;;;5006769;28;98097;-71
2023/09/15 08:06:02;;;;;;;12.25;5.47;;;;;;;;;;5006910;28;98966;-70
2023/09/15 08:08:28;;;;;;;9.90;5.22;;;;;;;;;;5009149;28;98399;-69
2023/09/15 08:10:55;;;;;;;9.77;6.13;;;;;;;;;;5007441;28;99541;-70
2023/09/15 08:13:21;;;;;;;11.52;6.05;;;;;;;;;;5005761;28;98339;-70
2023/09/15 08:15:51;;;;;;;10.23;5.72;;;;;;;;;;5006357;28;99373;-70
2023/09/15 08:18:18;;;;;;;9.23;5.75;;;;;;;;;;5005646;28;98826;-70
2023/09/15 08:20:45;;;;;;;6.38;5.55;;;;;;;;;;5005896;28;98212;-69
2023/09/15 08:23:12;;;;;;;10.73;5.75;;;;;;;;;;5006532;28;99538;-70
2023/09/15 08:25:39;;;;;;;9.25;5.90;;;;;;;;;;5007086;28;100504;-70
2023/09/15 08:28:06;;;;;;;8.80;5.85;;;;;;;;;;5005853;28;98244;-70
2023/09/15 08:30:36;;;;;;;8.50;5.70;;;;;;;;;;5009915;28;99437;-71
2023/09/15 08:33:05;;;;;;;13.00;6.03;;;;;;;;;;5006290;28;98326;-69
2023/09/15 08:35:33;;;;;;;8.45;5.63;;;;;;;;;;5006082;28;98887;-70
2023/09/15 08:37:59;;;;;;;12.10;6.03;;;;;;;;;;5006319;28;99162;-70
2023/09/15 08:40:37;;;;;;;8.77;5.28;;;;;;;;;;5006188;28;98614;-69
2023/09/15 08:43:07;;;;;;;11.07;5.35;;;;;;;;;;5004951;28;99640;-70
2023/09/15 08:45:33;;;;;;;8.45;5.53;;;;;;;;;;5004947;28;99213;-70
2023/09/15 08:48:03;;;;;;;9.63;5.78;;;;;;;;;;5006643;28;98005;-71
2023/09/15 08:50:30;;;;;;;9.05;6.13;;;;;;;;;;5005680;28;99446;-70
2023/09/15 08:52:59;;;;;;;7.05;5.72;;;;;;;;;;5011937;28;98969;-71
2023/09/15 08:55:26;;;;;;;10.63;6.43;;;;;;;;;;5010683;28;99059;-71
2023/09/15 08:57:53;;;;;;;6.13;5.47;;;;;;;;;;5010771;28;99845;-70
2023/09/15 09:00:19;;;;;;;10.15;6.05;;;;;;;;;;5008230;28;98093;-69
2023/09/15 09:02:49;;;;;;;6.25;5.65;;;;;;;;;;5005256;28;98760;-70
2023/09/15 09:05:16;;;;;;;6.95;6.35;;;;;;;;;;5005959;28;100164;-70
2023/09/15 09:07:44;;;;;;;10.95;6.45;;;;;;;;;;5005266;28;98812;-70
2023/09/15 09:10:10;;;;;;;6.72;5.97;;;;;;;;;;5005984;28;98753;-70
2023/09/15 09:12:37;;;;;;;6.43;5.80;;;;;;;;;;5005576;28;100107;-71
2023/09/15 09:15:03;;;;;;;6.90;5.88;;;;;;;;;;5009273;28;98287;-70
2023/09/15 09:17:31;;;;;;;9.32;5.63;;;;;;;;;;5004418;28;99993;-70
2023/09/15 09:19:57;;;;;;;5.85;5.32;;;;;;;;;;5006247;28;98659;-70
2023/09/15 09:22:24;;;;;;;6.70;6.00;;;;;;;;;;5005793;28;99959;-69
2023/09/15 09:24:57;;;;;;;8.20;5.13;;;;;;;;;;5005232;28;99427;-70
2023/09/15 09:27:31;;;;;;;10.38;6.10;;;;;;;;;;5005480;28;98126;-70
2023/09/15 09:29:58;;;;;;;9.27;6.40;;;;;;;;;;5006203;28;99391;-69
2023/09/15 09:32:25;;;;;;;10.27;5.78;;;;;;;;;;4995949;28;100796;-70
2023/09/15 09:34:52;;;;;;;6.10;5.50;;;;;;;;;;5009154;28;98248;-70
2023/09/15 09:37:23;;;;;;;6.68;6.03;;;;;;;;;;5004464;28;98924;-71
2023/09/15 09:39:49;;;;;;;10.57;5.82;;;;;;;;;;5005058;28;99511;-69
2023/09/15 09:42:16;;;;;;;11.70;5.90;;;;;;;;;;5004848;28;99841;-69
2023/09/15 09:44:43;;;;;;;16.88;6.40;;;;;;;;;;5005465;28;99806;-70
2023/09/15 09:47:10;;;;;;;12.00;5.32;;;;;;;;;;5005100;28;98256;-71
2023/09/15 09:49:37;;;;;;;7.32;4.95;;;;;;;;;;5006843;28;98755;-71
2023/09/15 09:52:03;;;;;;;7.25;5.00;;;;;;;;;;5008257;28;100039;-70
2023/09/15 09:54:31;;;;;;;12.35;5.70;;;;;;;;;;5008319;28;98146;-70
2023/09/15 09:56:58;;;;;;;14.32;4.85;;;;;;;;;;5009511;28;99700;-69
2023/09/15 09:59:26;;;;;;;9.60;5.65;;;;;;;;;;5007890;28;98283;-71
2023/09/15 10:01:53;;;;;;;7.70;6.07;;;;;;;;;;5009076;28;99665;-71
2023/09/15 10:04:21;;;;;;;10.80;5.53;;;;;;;;;;5008486;28;99154;-70
2023/09/15 10:06:49;;;;;;;10.85;5.15;;;;;;;;;;5000145;28;98527;-71
2023/09/15 10:09:15;;;;;;;6.53;4.95;;;;;;;;;;5008677;28;98547;-70
2023/09/15 10:11:43;;;;;;;4.93;4.40;;;;;;;;;;5008496;28;99057;-69
2023/09/15 10:14:10;;;;;;;5.05;4.50;;;;;;;;;;5008258;28;98249;-70
2023/09/15 10:16:36;;;;;;;7.95;5.57;;;;;;;;;;5008414;28;99328;-70
2023/09/15 10:19:03;;;;;;;7.90;5.85;;;;;;;;;;5012438;28;100251;-70
2023/09/15 10:21:34;;;;;;;8.35;5.75;;;;;;;;;;5005743;28;98699;-70
2023/09/15 10:24:04;;;;;;;5.95;4.65;;;;;;;;;;5008646;28;100083;-69
2023/09/15 10:26:30;;;;;;;9.63;5.47;;;;;;;;;;5008144;28;98907;-69
2023/09/15 10:28:57;;;;;;;13.32;5.13;;;;;;;;;;4999874;28;99786;-70
2023/09/15 10:31:24;;;;;;;8.48;5.28;;;;;;;;;;5007942;28;99894;-69
2023/09/15 10:33:51;;;;;;;5.72;4.80;;;;;;;;;;5008619;28;98911;-69
2023/09/15 10:36:18;;;;;;;6.65;5.32;;;;;;;;;;5007137;28;99183;-70
2023/09/15 10:38:45;;;;;;;7.10;5.15;;;;;;;;;;5008534;28;98929;-70
2023/09/15 10:41:23;;;;;;;9.48;4.90;;;;;;;;;;5011118;28;98244;-71
2023/09/15 10:43:51;;;;;;;9.25;4.90;;;;;;;;;;5008091;28;99038;-69
2023/09/15 10:46:18;;;;;;;6.90;6.15;;;;;;;;;;5007286;28;98298;-70
2023/09/15 10:48:48;;;;;;;6.03;4.75;;;;;;;;;;5008138;28;98716;-70
2023/09/15 10:51:18;;;;;;;8.48;5.55;;;;;;;;;;5009771;28;99847;-70
2023/09/15 10:53:56;;;;;;;6.63;5.13;;;;;;;;;;5010766;28;98279;-69
2023/09/15 10:56:24;;;;;;;6.35;4.82;;;;;;;;;;5002609;28;99255;-70
2023/09/15 10:58:50;;;;;;;5.43;4.93;;;;;;;;;;5008240;28;99662;-71
2023/09/15 11:01:17;;;;;;;9.52;4.40;;;;;;;;;;5008138;28;98901;-70
2023/09/15 11:03:44;;;;;;;8.65;4.68;;;;;;;;;;5010730;28;99957;-70
2023/09/15 11:06:12;;;;;;;5.07;4.72;;;;;;;;;;5008132;28;98327;-70
2023/09/15 11:08:39;;;;;;;5.10;4.60;;;;;;;;;;5007371;28;98789;-70
2023/09/15 11:11:10;;;;;;;4.65;4.20;;;;;;;;;;5006122;28;100027;-70
2023/09/15 11:13:37;;;;;;;5.50;4.88;;;;;;;;;;5006942;28;98197;-70
2023/09/15 11:16:04;;;;;;;6.20;4.28;;;;;;;;;;5007680;28;99733;-71
2023/09/15 11:18:34;;;;;;;8.43;4.40;;;;;;;;;;5006584;28;99392;-70
2023/09/15 11:21:05;;;;;;;8.37;4.17;;;;;;;;;;5008088;28;98463;-68
2023/09/15 11:23:31;;;;;;;7.07;4.30;;;;;;;;;;5006567;28;98454;-69
2023/09/15 11:26:03;;;;;;;5.53;4.03;;;;;;;;;;5010952;28;99493;-70
2023/09/15 11:28:42;;;;;;;4.00;3.63;;;;;;;;;;5007482;28;98245;-69
2023/09/15 11:31:09;;;;;;;4.68;3.88;;;;;;;;;;5006443;28;99935;-70
2023/09/15 11:33:40;;;;;;;7.85;4.75;;;;;;;;;;5007709;28;98729;-69
2023/09/15 11:36:07;;;;;;;8.40;4.57;;;;;;;;;;5006819;28;100354;-71
2023/09/15 11:38:33;;;;;;;5.75;4.18;;;;;;;;;;5006187;28;98802;-71
2023/09/15 11:41:00;;;;;;;3.92;3.53;;;;;;;;;;5007466;28;98201;-69
2023/09/15 11:43:26;;;;;;;4.40;4.00;;;;;;;;;;5007153;28;99531;-71
2023/09/15 11:45:53;;;;;;;3.75;3.45;;;;;;;;;;5009673;28;99418;-71
2023/09/15 11:48:21;;;;;;;4.38;3.97;;;;;;;;;;5007133;28;99547;-71
2023/09/15 11:50:48;;;;;;;5.22;4.55;;;;;;;;;;5006917;28;98860;-69
2023/09/15 11:53:22;;;;;;;5.28;3.67;;;;;;;;;;5006610;28;98351;-70
2023/09/15 11:55:51;;;;;;;4.25;3.70;;;;;;;;;;5007404;28;99453;-70
2023/09/15 11:58:18;;;;;;;6.15;3.47;;;;;;;;;;5006575;28;100932;-68
2023/09/15 12:00:45;;;;;;;4.45;4.05;;;;;;;;;;5005887;28;98712;-70
2023/09/15 12:03:11;;;;;;;5.80;3.70;;;;;;;;;;5006741;28;99113;-69
2023/09/15 12:05:40;;;;;;;6.20;3.35;;;;;;;;;;5006802;28;99911;-71
2023/09/15 12:08:06;;;;;;;7.78;4.35;;;;;;;;;;5010086;28;98250;-70
2023/09/15 12:10:33;;;;;;;5.35;4.20;;;;;;;;;;5006424;28;100087;-71
2023/09/15 12:12:59;;;;;;;9.77;4.40;;;;;;;;;;5005988;28;98336;-69
2023/09/15 12:15:26;;;;;;;5.10;4.40;;;;;;;;;;5006588;28;99457;-70
2023/09/15 12:17:53;;;;;;;5.25;3.47;;;;;;;;;;5006888;28;99623;-70
2023/09/15 12:20:23;;;;;;;5.75;3.67;;;;;;;;;;5004648;28;98499;-70
2023/09/15 12:22:52;;;;;;;3.53;3.17;;;;;;;;;;5006626;28;98713;-70
2023/09/15 12:25:18;;;;;;;5.25;3.00;;;;;;;;;;5005594;28;100168;-69
2023/09/15 12:27:46;;;;;;;6.45;3.55;;;;;;;;;;5005711;28;98252;-70
2023/09/15 12:30:13;;;;;;;5.53;3.00;;;;;;;;;;5009866;28;99349;-71
2023/09/15 12:32:43;;;;;;;3.80;3.03;;;;;;;;;;5006246;28;98391;-71
2023/09/15 12:35:11;;;;;;;4.70;3.22;;;;;;;;;;5006301;28;99959;-68
2023/09/15 12:37:44;;;;;;;3.75;2.65;;;;;;;;;;5006042;28;100008;-69
2023/09/15 12:40:12;;;;;;;4.47;2.72;;;;;;;;;;4999872;28;99266;-70
2023/09/15 12:42:39;;;;;;;2.47;1.90;;;;;;;;;;5006077;28;99739;-68
2023/09/15 12:45:06;;;;;;;5.03;3.25;;;;;;;;;;4998238;28;100639;-71
2023/09/15 12:47:33;;;;;;;5.07;2.60;;;;;;;;;;5006070;28;98555;-71
2023/09/15 12:50:05;;;;;;;4.43;2.78;;;;;;;;;;5005157;28;98685;-71
2023/09/15 12:52:32;;;;;;;3.22;2.95;;;;;;;;;;5009576;28;99969;-70
2023/09/15 12:54:59;;;;;;;6.45;2.63;;;;;;;;;;5005915;28;99723;-69
2023/09/15 12:57:25;;;;;;;5.30;2.88;;;;;;;;;;5005681;28;100108;-69
2023/09/15 12:59:52;;;;;;;6.78;3.03;;;;;;;;;;5006620;28;100267;-70
2023/09/15 13:02:19;;;;;;;2.97;2.17;;;;;;;;;;5005419;28;99377;-70
2023/09/15 13:04:46;;;;;;;4.82;2.65;;;;;;;;;;5006018;28;100116;-69
2023/09/15 13:07:13;;;;;;;5.88;2.13;;;;;;;;;;5005914;28;100462;-69
2023/09/15 13:09:39;;;;;;;9.10;3.15;;;;;;;;;;5005749;28;98790;-69
2023/09/15 13:12:07;;;;;;;8.63;3.60;;;;;;;;;;5005062;28;99888;-69
2023/09/15 13:14:34;;;;;;;4.07;3.05;;;;;;;;;;5008559;28;98225;-70
2023/09/15 13:17:00;;;;;;;3.35;2.95;;;;;;;;;;5004909;28;99610;-68
2023/09/15 13:19:27;;;;;;;6.40;2.78;;;;;;;;;;5006118;28;98286;-69
2023/09/15 13:21:54;;;;;;;3.63;2.83;;;;;;;;;;5005978;28;99684;-70
2023/09/15 13:24:20;;;;;;;3.67;3.38;;;;;;;;;;5004725;28;100116;-70
2023/09/15 13:26:47;;;;;;;3.75;3.22;;;;;;;;;;5006272;28;99941;-69
2023/09/15 13:29:14;;;;;;;4.38;3.65;;;;;;;;;;5005895;28;99018;-69
2023/09/15 13:31:40;;;;;;;5.75;3.30;;;;;;;;;;5006275;28;99885;-71
2023/09/15 13:34:07;;;;;;;3.13;2.83;;;;;;;;;;5009358;28;98226;-70
2023/09/15 13:36:33;;;;;;;7.68;3.45;;;;;;;;;;5012263;28;99564;-69
2023/09/15 13:39:00;;;;;;;4.82;3.33;;;;;;;;;;5007883;28;98287;-70
2023/09/15 13:41:26;;;;;;;7.30;3.42;;;;;;;;;;5008691;28;99441;-70
2023/09/15 13:43:53;;;;;;;4.85;3.67;;;;;;;;;;5008845;28;99981;-71
2023/09/15 13:46:19;;;;;;;3.97;2.95;;;;;;;;;;5007247;28;98247;-71
2023/09/15 13:48:48;;;;;;;4.45;2.80;;;;;;;;;;5009702;28;99363;-69
2023/09/15 13:51:15;;;;;;;4.80;3.13;;;;;;;;;;5007379;28;99144;-69
2023/09/15 13:53:44;;;;;;;3.65;3.30;;;;;;;;;;5009179;28;98279;-69
2023/09/15 13:56:11;;;;;;;5.28;2.60;;;;;;;;;;5012104;28;98817;-69
2023/09/15 13:58:40;;;;;;;7.30;3.30;;;;;;;;;;5008276;28;100300;-70
2023/09/15 14:01:07;;;;;;;3.95;3.08;;;;;;;;;;5009276;28;99670;-70
2023/09/15 14:03:34;;;;;;;5.20;2.70;;;;;;;;;;5007049;28;99027;-69
2023/09/15 14:06:01;;;;;;;8.48;3.95;;;;;;;;;;5007809;28;98263;-71
2023/09/15 14:08:27;;;;;;;2.85;2.65;;;;;;;;;;5008422;28;99747;-69
2023/09/15 14:10:53;;;;;;;4.70;3.60;;;;;;;;;;5008307;28;98903;-69
2023/09/15 14:13:21;;;;;;;5.60;3.80;;;;;;;;;;5007805;28;98418;-70
2023/09/15 14:15:48;;;;;;;4.70;3.20;;;;;;;;;;5008523;28;99678;-70
2023/09/15 14:18:15;;;;;;;4.47;3.50;;;;;;;;;;5011561;28;99917;-70
2023/09/15 14:20:42;;;;;;;5.95;4.00;;;;;;;;;;5008141;28;99395;-71
2023/09/15 14:23:08;;;;;;;6.43;4.22;;;;;;;;;;5007892;28;99014;-70
2023/09/15 14:25:35;;;;;;;6.93;4.28;;;;;;;;;;5008195;28;98496;-70
2023/09/15 14:28:02;;;;;;;8.07;4.72;;;;;;;;;;5006844;28;99364;-70
2023/09/15 14:30:28;;;;;;;5.38;4.13;;;;;;;;;;5008070;28;100065;-70
2023/09/15 14:32:56;;;;;;;6.95;3.63;;;;;;;;;;5008263;28;98338;-71
2023/09/15 14:35:23;;;;;;;4.30;3.70;;;;;;;;;;5008404;28;98712;-70